sensor_id;sensor_type;location;lat;lon;timestamp;pressure;altitude;pressure_sealevel;temperature;humidity
13015;BME280;6573;57.696;11.950;2023-04-05T00:01:18;102567.84;;;9.31;100.00
13015;BME280;6573;57.696;11.950;2023-04-05T00:03:46;102589.81;;;9.33;100.00
13015;BME280;6573;57.696;11.950;2023-04-05T00:06:16;102584.94;;;9.45;100.00
13015;BME280;6573;57.696;11.950;2023-04-05T00:08:44;102584.81;;;9.42;100.00
13015;BME280;6573;57.696;11.950;2023-04-05T00:11:16;102583.56;;;9.29;100.00
13015;BME280;6573;57.696;11.950;2023-04-05T00:13:45;102587.91;;;9.29;100.00
13015;BME280;6573;57.696;11.950;2023-04-05T00:16:14;102581.06;;;9.34;100.00
13015;BME280;6573;57.696;11.950;2023-04-05T00:18:43;102596.81;;;9.34;100.00
13015;BME280;6573;57.696;11.950;2023-04-05T00:21:17;102592.13;;;9.52;100.00
13015;BME280;6573;57.696;11.950;2023-04-05T00:23:53;102587.59;;;9.46;100.00
13015;BME280;6573;57.696;11.950;2023-04-05T00:26:24;102586.78;;;9.49;100.00
13015;BME280;6573;57.696;11.950;2023-04-05T00:28:53;102579.66;;;9.45;100.00
13015;BME280;6573;57.696;11.950;2023-04-05T00:31:21;102582.88;;;9.35;100.00
13015;BME280;6573;57.696;11.950;2023-04-05T00:33:49;102584.09;;;9.18;100.00
13015;BME280;6573;57.696;11.950;2023-04-05T00:36:20;102584.25;;;9.24;100.00
13015;BME280;6573;57.696;11.950;2023-04-05T00:38:49;102578.53;;;9.08;100.00
13015;BME280;6573;57.696;11.950;2023-04-05T00:41:18;102564.44;;;9.05;100.00
13015;BME280;6573;57.696;11.950;2023-04-05T00:43:46;102587.53;;;9.17;100.00
13015;BME280;6573;57.696;11.950;2023-04-05T00:46:14;102585.38;;;9.03;100.00
13015;BME280;6573;57.696;11.950;2023-04-05T00:48:43;102568.03;;;9.08;100.00
13015;BME280;6573;57.696;11.950;2023-04-05T00:51:12;102583.97;;;9.15;100.00
13015;BME280;6573;57.696;11.950;2023-04-05T00:53:42;102567.25;;;8.84;100.00
13015;BME280;6573;57.696;11.950;2023-04-05T00:56:11;102584.81;;;8.85;100.00
13015;BME280;6573;57.696;11.950;2023-04-05T00:58:40;102574.75;;;8.72;100.00
13015;BME280;6573;57.696;11.950;2023-04-05T01:01:12;102565.00;;;8.68;100.00
13015;BME280;6573;57.696;11.950;2023-04-05T01:03:48;102577.25;;;8.69;100.00
13015;BME280;6573;57.696;11.950;2023-04-05T01:06:27;102572.41;;;8.55;100.00
13015;BME280;6573;57.696;11.950;2023-04-05T01:09:10;102582.00;;;8.54;100.00
13015;BME280;6573;57.696;11.950;2023-04-05T01:11:41;102562.59;;;8.49;100.00
13015;BME280;6573;57.696;11.950;2023-04-05T01:14:11;102571.50;;;8.54;100.00
13015;BME280;6573;57.696;11.950;2023-04-05T01:16:40;102574.88;;;8.50;100.00
13015;BME280;6573;57.696;11.950;2023-04-05T01:19:08;102575.59;;;8.46;100.00
13015;BME280;6573;57.696;11.950;2023-04-05T01:25:10;102562.94;;;8.33;100.00
13015;BME280;6573;57.696;11.950;2023-04-05T01:28:01;102574.34;;;8.35;100.00
13015;BME280;6573;57.696;11.950;2023-04-05T01:30:41;102568.31;;;8.37;100.00
13015;BME280;6573;57.696;11.950;2023-04-05T01:33:15;102543.00;;;8.14;100.00
13015;BME280;6573;57.696;11.950;2023-04-05T01:35:50;102568.97;;;8.30;100.00
13015;BME280;6573;57.696;11.950;2023-04-05T01:38:22;102563.63;;;8.29;100.00
13015;BME280;6573;57.696;11.950;2023-04-05T01:40:53;102563.53;;;8.26;100.00
13015;BME280;6573;57.696;11.950;2023-04-05T01:43:21;102529.53;;;8.04;100.00
13015;BME280;6573;57.696;11.950;2023-04-05T01:45:51;102565.09;;;8.21;100.00
13015;BME280;6573;57.696;11.950;2023-04-05T01:48:19;102561.41;;;8.16;100.00
13015;BME280;6573;57.696;11.950;2023-04-05T01:50:47;102550.81;;;8.13;100.00
13015;BME280;6573;57.696;11.950;2023-04-05T01:53:16;102509.63;;;7.83;100.00
13015;BME280;6573;57.696;11.950;2023-04-05T01:55:44;102559.19;;;8.03;100.00
13015;BME280;6573;57.696;11.950;2023-04-05T01:58:12;102563.50;;;8.01;100.00
13015;BME280;6573;57.696;11.950;2023-04-05T02:00:41;102558.78;;;7.91;100.00
13015;BME280;6573;57.696;11.950;2023-04-05T02:03:11;102563.34;;;7.96;100.00
13015;BME280;6573;57.696;11.950;2023-04-05T02:05:41;102558.88;;;7.94;100.00
13015;BME280;6573;57.696;11.950;2023-04-05T02:08:10;102564.13;;;7.94;100.00
13015;BME280;6573;57.696;11.950;2023-04-05T02:10:39;102554.22;;;7.87;100.00
13015;BME280;6573;57.696;11.950;2023-04-05T02:13:07;102555.22;;;7.89;100.00
13015;BME280;6573;57.696;11.950;2023-04-05T02:15:37;102555.28;;;7.92;100.00
13015;BME280;6573;57.696;11.950;2023-04-05T02:18:05;102550.91;;;7.91;100.00
13015;BME280;6573;57.696;11.950;2023-04-05T02:20:36;102558.41;;;7.81;100.00
13015;BME280;6573;57.696;11.950;2023-04-05T02:23:07;102540.63;;;7.71;100.00
13015;BME280;6573;57.696;11.950;2023-04-05T02:25:35;102545.84;;;7.71;100.00
13015;BME280;6573;57.696;11.950;2023-04-05T02:28:04;102544.19;;;7.73;100.00
13015;BME280;6573;57.696;11.950;2023-04-05T02:30:32;102538.69;;;7.67;100.00
13015;BME280;6573;57.696;11.950;2023-04-05T02:33:00;102527.66;;;7.52;100.00
13015;BME280;6573;57.696;11.950;2023-04-05T02:35:29;102552.91;;;7.50;100.00
13015;BME280;6573;57.696;11.950;2023-04-05T02:37:58;102540.47;;;7.45;100.00
13015;BME280;6573;57.696;11.950;2023-04-05T02:40:27;102539.66;;;7.46;100.00
13015;BME280;6573;57.696;11.950;2023-04-05T02:42:55;102549.47;;;7.51;100.00
13015;BME280;6573;57.696;11.950;2023-04-05T02:45:24;102527.47;;;7.46;100.00
13015;BME280;6573;57.696;11.950;2023-04-05T02:47:53;102546.84;;;7.51;100.00
13015;BME280;6573;57.696;11.950;2023-04-05T02:50:22;102516.97;;;7.46;100.00
13015;BME280;6573;57.696;11.950;2023-04-05T02:52:51;102518.09;;;7.29;100.00
13015;BME280;6573;57.696;11.950;2023-04-05T02:55:21;102539.03;;;7.29;100.00
13015;BME280;6573;57.696;11.950;2023-04-05T02:57:49;102540.06;;;7.12;100.00
13015;BME280;6573;57.696;11.950;2023-04-05T03:00:18;102552.59;;;7.19;100.00
13015;BME280;6573;57.696;11.950;2023-04-05T03:02:48;102548.91;;;7.14;100.00
13015;BME280;6573;57.696;11.950;2023-04-05T03:05:16;102519.53;;;6.99;100.00
13015;BME280;6573;57.696;11.950;2023-04-05T03:07:46;102551.28;;;7.08;100.00
13015;BME280;6573;57.696;11.950;2023-04-05T03:10:16;102539.03;;;7.07;100.00
13015;BME280;6573;57.696;11.950;2023-04-05T03:12:46;102541.66;;;7.07;100.00
13015;BME280;6573;57.696;11.950;2023-04-05T03:15:17;102536.88;;;7.19;100.00
13015;BME280;6573;57.696;11.950;2023-04-05T03:17:45;102528.84;;;7.14;100.00
13015;BME280;6573;57.696;11.950;2023-04-05T03:20:13;102526.03;;;7.10;100.00
13015;BME280;6573;57.696;11.950;2023-04-05T03:22:41;102526.63;;;7.25;100.00
13015;BME280;6573;57.696;11.950;2023-04-05T03:25:10;102502.16;;;7.01;100.00
13015;BME280;6573;57.696;11.950;2023-04-05T03:27:38;102525.69;;;7.23;100.00
13015;BME280;6573;57.696;11.950;2023-04-05T03:30:09;102537.97;;;7.02;100.00
13015;BME280;6573;57.696;11.950;2023-04-05T03:32:38;102513.25;;;6.73;100.00
13015;BME280;6573;57.696;11.950;2023-04-05T03:35:07;102533.91;;;6.88;100.00
13015;BME280;6573;57.696;11.950;2023-04-05T03:37:35;102527.97;;;6.70;100.00
13015;BME280;6573;57.696;11.950;2023-04-05T03:40:04;102542.13;;;6.75;100.00
13015;BME280;6573;57.696;11.950;2023-04-05T03:42:34;102535.09;;;6.74;100.00
13015;BME280;6573;57.696;11.950;2023-04-05T03:45:03;102480.72;;;6.44;100.00
13015;BME280;6573;57.696;11.950;2023-04-05T03:47:33;102522.22;;;6.58;100.00
13015;BME280;6573;57.696;11.950;2023-04-05T03:50:04;102535.53;;;6.64;100.00
13015;BME280;6573;57.696;11.950;2023-04-05T03:52:32;102534.72;;;6.65;100.00
13015;BME280;6573;57.696;11.950;2023-04-05T03:55:01;102523.75;;;6.52;100.00
13015;BME280;6573;57.696;11.950;2023-04-05T03:57:30;102481.19;;;6.34;100.00
13015;BME280;6573;57.696;11.950;2023-04-05T03:59:58;102532.94;;;6.64;100.00
13015;BME280;6573;57.696;11.950;2023-04-05T04:02:26;102539.69;;;6.59;100.00
13015;BME280;6573;57.696;11.950;2023-04-05T04:04:57;102535.19;;;6.55;100.00
13015;BME280;6573;57.696;11.950;2023-04-05T04:07:27;102538.34;;;6.47;100.00
13015;BME280;6573;57.696;11.950;2023-04-05T04:09:56;102534.47;;;6.59;100.00
13015;BME280;6573;57.696;11.950;2023-04-05T04:12:24;102530.50;;;6.47;100.00
13015;BME280;6573;57.696;11.950;2023-04-05T04:14:52;102528.97;;;6.52;100.00
13015;BME280;6573;57.696;11.950;2023-04-05T04:17:27;102528.19;;;6.55;100.00
13015;BME280;6573;57.696;11.950;2023-04-05T04:19:57;102529.09;;;6.56;100.00
13015;BME280;6573;57.696;11.950;2023-04-05T04:22:26;102512.91;;;6.43;100.00
13015;BME280;6573;57.696;11.950;2023-04-05T04:24:59;102526.44;;;6.33;100.00
13015;BME280;6573;57.696;11.950;2023-04-05T04:27:31;102523.63;;;6.49;100.00
13015;BME280;6573;57.696;11.950;2023-04-05T04:30:02;102517.19;;;6.41;100.00
13015;BME280;6573;57.696;11.950;2023-04-05T04:32:30;102521.06;;;6.30;100.00
13015;BME280;6573;57.696;11.950;2023-04-05T04:35:14;102523.03;;;6.15;100.00
13015;BME280;6573;57.696;11.950;2023-04-05T04:37:45;102522.75;;;6.08;100.00
13015;BME280;6573;57.696;11.950;2023-04-05T04:40:14;102512.03;;;6.02;100.00
13015;BME280;6573;57.696;11.950;2023-04-05T04:42:43;102519.91;;;6.03;100.00
13015;BME280;6573;57.696;11.950;2023-04-05T04:45:12;102504.13;;;6.00;100.00
13015;BME280;6573;57.696;11.950;2023-04-05T04:47:43;102522.09;;;6.13;100.00
13015;BME280;6573;57.696;11.950;2023-04-05T04:50:15;102526.94;;;6.04;100.00
13015;BME280;6573;57.696;11.950;2023-04-05T04:52:46;102521.72;;;6.04;100.00
13015;BME280;6573;57.696;11.950;2023-04-05T04:55:14;102530.38;;;6.03;100.00
13015;BME280;6573;57.696;11.950;2023-04-05T04:57:42;102529.22;;;5.97;100.00
13015;BME280;6573;57.696;11.950;2023-04-05T05:00:12;102526.13;;;5.86;100.00
13015;BME280;6573;57.696;11.950;2023-04-05T05:02:41;102514.47;;;5.78;100.00
13015;BME280;6573;57.696;11.950;2023-04-05T05:05:10;102524.38;;;5.85;100.00
13015;BME280;6573;57.696;11.950;2023-04-05T05:07:40;102522.84;;;5.90;100.00
13015;BME280;6573;57.696;11.950;2023-04-05T05:10:10;102525.84;;;5.99;100.00
13015;BME280;6573;57.696;11.950;2023-04-05T05:12:38;102489.16;;;5.77;100.00
13015;BME280;6573;57.696;11.950;2023-04-05T05:15:07;102517.88;;;5.96;100.00
13015;BME280;6573;57.696;11.950;2023-04-05T05:17:36;102524.38;;;5.85;100.00
13015;BME280;6573;57.696;11.950;2023-04-05T05:20:05;102526.28;;;5.89;100.00
13015;BME280;6573;57.696;11.950;2023-04-05T05:22:37;102526.13;;;5.86;100.00
13015;BME280;6573;57.696;11.950;2023-04-05T05:25:08;102527.63;;;5.81;100.00
13015;BME280;6573;57.696;11.950;2023-04-05T05:27:38;102527.50;;;5.78;100.00
13015;BME280;6573;57.696;11.950;2023-04-05T05:30:08;102508.25;;;5.76;100.00
13015;BME280;6573;57.696;11.950;2023-04-05T05:32:36;102521.84;;;6.07;100.00
13015;BME280;6573;57.696;11.950;2023-04-05T05:35:08;102512.34;;;6.09;100.00
13015;BME280;6573;57.696;11.950;2023-04-05T05:37:39;102534.59;;;6.20;100.00
13015;BME280;6573;57.696;11.950;2023-04-05T05:40:09;102475.44;;;6.02;100.00
13015;BME280;6573;57.696;11.950;2023-04-05T05:42:39;102522.75;;;6.28;100.00
13015;BME280;6573;57.696;11.950;2023-04-05T05:45:08;102506.81;;;6.02;100.00
13015;BME280;6573;57.696;11.950;2023-04-05T05:47:37;102522.94;;;6.12;100.00
13015;BME280;6573;57.696;11.950;2023-04-05T05:50:06;102515.47;;;6.21;100.00
13015;BME280;6573;57.696;11.950;2023-04-05T05:52:35;102498.41;;;6.29;100.00
13015;BME280;6573;57.696;11.950;2023-04-05T05:55:04;102509.34;;;6.41;100.00
13015;BME280;6573;57.696;11.950;2023-04-05T05:57:34;102509.34;;;6.41;100.00
13015;BME280;6573;57.696;11.950;2023-04-05T06:00:05;102509.50;;;6.44;100.00
13015;BME280;6573;57.696;11.950;2023-04-05T06:02:36;102505.16;;;6.45;100.00
13015;BME280;6573;57.696;11.950;2023-04-05T06:05:05;102504.00;;;6.38;100.00
13015;BME280;6573;57.696;11.950;2023-04-05T06:07:35;102511.16;;;6.42;100.00
13015;BME280;6573;57.696;11.950;2023-04-05T06:10:04;102515.97;;;6.33;100.00
13015;BME280;6573;57.696;11.950;2023-04-05T06:12:34;102502.59;;;6.46;100.00
13015;BME280;6573;57.696;11.950;2023-04-05T06:15:03;102467.28;;;6.35;100.00
13015;BME280;6573;57.696;11.950;2023-04-05T06:17:32;102476.72;;;6.32;100.00
13015;BME280;6573;57.696;11.950;2023-04-05T06:20:07;102487.09;;;6.51;100.00
13015;BME280;6573;57.696;11.950;2023-04-05T06:22:36;102501.81;;;6.70;100.00
13015;BME280;6573;57.696;11.950;2023-04-05T06:25:07;102505.50;;;6.75;100.00
13015;BME280;6573;57.696;11.950;2023-04-05T06:27:37;102500.34;;;6.78;100.00
13015;BME280;6573;57.696;11.950;2023-04-05T06:30:06;102488.34;;;6.83;100.00
13015;BME280;6573;57.696;11.950;2023-04-05T06:32:35;102492.50;;;7.00;100.00
13015;BME280;6573;57.696;11.950;2023-04-05T06:35:07;102508.97;;;6.97;100.00
13015;BME280;6573;57.696;11.950;2023-04-05T06:37:35;102495.38;;;7.06;100.00
13015;BME280;6573;57.696;11.950;2023-04-05T06:40:04;102505.16;;;7.34;100.00
13015;BME280;6573;57.696;11.950;2023-04-05T06:42:33;102497.78;;;7.47;100.00
13015;BME280;6573;57.696;11.950;2023-04-05T06:45:03;102494.25;;;7.45;100.00
13015;BME280;6573;57.696;11.950;2023-04-05T06:47:32;102453.66;;;6.87;100.00
13015;BME280;6573;57.696;11.950;2023-04-05T06:50:02;102494.31;;;7.01;100.00
13015;BME280;6573;57.696;11.950;2023-04-05T06:52:31;102491.41;;;7.17;100.00
13015;BME280;6573;57.696;11.950;2023-04-05T06:55:00;102484.44;;;7.16;100.00
13015;BME280;6573;57.696;11.950;2023-04-05T06:57:30;102483.44;;;7.36;100.00
13015;BME280;6573;57.696;11.950;2023-04-05T06:59:58;102458.25;;;7.40;100.00
13015;BME280;6573;57.696;11.950;2023-04-05T07:02:28;102488.66;;;7.83;100.00
13015;BME280;6573;57.696;11.950;2023-04-05T07:04:59;102484.75;;;7.72;100.00
13015;BME280;6573;57.696;11.950;2023-04-05T07:07:31;102477.38;;;7.86;100.00
13015;BME280;6573;57.696;11.950;2023-04-05T07:10:00;102469.47;;;7.84;100.00
13015;BME280;6573;57.696;11.950;2023-04-05T07:12:29;102478.25;;;7.87;100.00
13015;BME280;6573;57.696;11.950;2023-04-05T07:14:58;102426.81;;;7.63;100.00
13015;BME280;6573;57.696;11.950;2023-04-05T07:17:28;102464.44;;;7.91;100.00
13015;BME280;6573;57.696;11.950;2023-04-05T07:19:56;102449.53;;;7.90;100.00
13015;BME280;6573;57.696;11.950;2023-04-05T07:22:24;102457.34;;;8.13;100.00
13015;BME280;6573;57.696;11.950;2023-04-05T07:24:53;102465.38;;;8.18;100.00
13015;BME280;6573;57.696;11.950;2023-04-05T07:27:22;102464.00;;;8.29;100.00
13015;BME280;6573;57.696;11.950;2023-04-05T07:29:50;102461.44;;;8.30;100.00
13015;BME280;6573;57.696;11.950;2023-04-05T07:32:18;102464.88;;;8.28;100.00
13015;BME280;6573;57.696;11.950;2023-04-05T07:34:48;102450.06;;;8.30;100.00
13015;BME280;6573;57.696;11.950;2023-04-05T07:37:17;102440.75;;;8.39;100.00
13015;BME280;6573;57.696;11.950;2023-04-05T07:39:46;102422.66;;;8.47;100.00
13015;BME280;6573;57.696;11.950;2023-04-05T07:42:15;102433.72;;;8.65;100.00
13015;BME280;6573;57.696;11.950;2023-04-05T07:44:47;102428.03;;;8.80;100.00
13015;BME280;6573;57.696;11.950;2023-04-05T07:47:15;102437.84;;;8.85;100.00
13015;BME280;6573;57.696;11.950;2023-04-05T07:49:44;102408.19;;;8.60;100.00
13015;BME280;6573;57.696;11.950;2023-04-05T07:52:14;102434.25;;;8.83;100.00
13015;BME280;6573;57.696;11.950;2023-04-05T07:54:42;102428.94;;;8.80;100.00
13015;BME280;6573;57.696;11.950;2023-04-05T07:57:15;102427.50;;;8.91;100.00
13015;BME280;6573;57.696;11.950;2023-04-05T07:59:44;102431.97;;;8.94;100.00
13015;BME280;6573;57.696;11.950;2023-04-05T08:02:13;102396.09;;;8.94;100.00
13015;BME280;6573;57.696;11.950;2023-04-05T08:04:41;102426.16;;;9.05;100.00
13015;BME280;6573;57.696;11.950;2023-04-05T08:07:10;102417.72;;;9.16;100.00
13015;BME280;6573;57.696;11.950;2023-04-05T08:09:40;102412.97;;;9.34;100.00
13015;BME280;6573;57.696;11.950;2023-04-05T08:12:08;102395.28;;;9.27;100.00
13015;BME280;6573;57.696;11.950;2023-04-05T08:14:37;102417.22;;;9.60;100.00
13015;BME280;6573;57.696;11.950;2023-04-05T08:17:05;102412.03;;;9.63;100.00
13015;BME280;6573;57.696;11.950;2023-04-05T08:19:34;102415.75;;;9.71;100.00
13015;BME280;6573;57.696;11.950;2023-04-05T08:22:02;102405.63;;;9.86;100.00
13015;BME280;6573;57.696;11.950;2023-04-05T08:24:30;102393.88;;;10.06;100.00
13015;BME280;6573;57.696;11.950;2023-04-05T08:27:00;102393.88;;;10.06;100.00
13015;BME280;6573;57.696;11.950;2023-04-05T08:29:28;102407.78;;;10.02;100.00
13015;BME280;6573;57.696;11.950;2023-04-05T08:31:56;102398.47;;;10.13;100.00
13015;BME280;6573;57.696;11.950;2023-04-05T08:34:25;102394.03;;;10.12;100.00
13015;BME280;6573;57.696;11.950;2023-04-05T08:36:57;102393.88;;;10.81;100.00
13015;BME280;6573;57.696;11.950;2023-04-05T08:39:25;102382.81;;;11.88;100.00
13015;BME280;6573;57.696;11.950;2023-04-05T08:42:01;102386.28;;;12.41;100.00
13015;BME280;6573;57.696;11.950;2023-04-05T08:44:30;102375.69;;;12.38;100.00
13015;BME280;6573;57.696;11.950;2023-04-05T08:46:59;102372.81;;;12.84;100.00
13015;BME280;6573;57.696;11.950;2023-04-05T08:49:28;102376.78;;;13.17;98.18
13015;BME280;6573;57.696;11.950;2023-04-05T08:51:59;102370.94;;;12.74;96.33
13015;BME280;6573;57.696;11.950;2023-04-05T08:54:27;102339.09;;;12.62;96.66
13015;BME280;6573;57.696;11.950;2023-04-05T08:56:56;102355.94;;;12.73;96.72
13015;BME280;6573;57.696;11.950;2023-04-05T08:59:27;102356.94;;;12.81;95.11
13015;BME280;6573;57.696;11.950;2023-04-05T09:01:57;102345.16;;;12.57;94.35
13015;BME280;6573;57.696;11.950;2023-04-05T09:04:29;102351.41;;;12.63;93.39
13015;BME280;6573;57.696;11.950;2023-04-05T09:07:00;102353.25;;;12.69;93.12
13015;BME280;6573;57.696;11.950;2023-04-05T09:09:35;102350.50;;;12.63;93.14
13015;BME280;6573;57.696;11.950;2023-04-05T09:12:05;102335.34;;;12.48;92.08
13015;BME280;6573;57.696;11.950;2023-04-05T09:14:37;102351.44;;;12.66;92.49
13015;BME280;6573;57.696;11.950;2023-04-05T09:17:06;102339.88;;;12.55;92.34
13015;BME280;6573;57.696;11.950;2023-04-05T09:19:35;102349.66;;;12.62;92.24
13015;BME280;6573;57.696;11.950;2023-04-05T09:22:05;102332.81;;;12.53;92.15
13015;BME280;6573;57.696;11.950;2023-04-05T09:24:34;102332.91;;;12.62;91.76
13015;BME280;6573;57.696;11.950;2023-04-05T09:27:08;102341.72;;;12.64;92.66
13015;BME280;6573;57.696;11.950;2023-04-05T09:29:39;102315.06;;;12.43;91.81
13015;BME280;6573;57.696;11.950;2023-04-05T09:32:09;102338.16;;;12.59;91.94
13015;BME280;6573;57.696;11.950;2023-04-05T09:34:38;102335.41;;;12.51;92.59
13015;BME280;6573;57.696;11.950;2023-04-05T09:37:14;102326.59;;;12.49;92.17
13015;BME280;6573;57.696;11.950;2023-04-05T09:39:44;102335.50;;;12.57;92.63
13015;BME280;6573;57.696;11.950;2023-04-05T09:42:16;102311.69;;;12.54;92.44
13015;BME280;6573;57.696;11.950;2023-04-05T09:44:50;102326.75;;;12.61;91.43
13015;BME280;6573;57.696;11.950;2023-04-05T09:47:21;102325.88;;;12.64;91.57
13015;BME280;6573;57.696;11.950;2023-04-05T09:49:53;102321.56;;;12.70;91.42
13015;BME280;6573;57.696;11.950;2023-04-05T09:52:23;102309.31;;;12.75;90.35
13015;BME280;6573;57.696;11.950;2023-04-05T09:54:53;102324.09;;;12.60;89.29
13015;BME280;6573;57.696;11.950;2023-04-05T09:57:23;102311.09;;;12.76;88.07
13015;BME280;6573;57.696;11.950;2023-04-05T09:59:54;102303.06;;;12.69;87.41
13015;BME280;6573;57.696;11.950;2023-04-05T10:02:34;102306.09;;;13.00;86.27
13015;BME280;6573;57.696;11.950;2023-04-05T10:05:05;102304.69;;;13.33;87.42
13015;BME280;6573;57.696;11.950;2023-04-05T10:07:34;102309.09;;;13.31;88.55
13015;BME280;6573;57.696;11.950;2023-04-05T10:10:03;102306.25;;;13.13;88.49
13015;BME280;6573;57.696;11.950;2023-04-05T10:12:32;102297.41;;;13.11;88.55
13015;BME280;6573;57.696;11.950;2023-04-05T10:15:02;102294.66;;;13.02;88.05
13015;BME280;6573;57.696;11.950;2023-04-05T10:17:36;102299.28;;;13.21;87.42
13015;BME280;6573;57.696;11.950;2023-04-05T10:20:09;102270.88;;;13.02;86.29
13015;BME280;6573;57.696;11.950;2023-04-05T10:22:51;102297.09;;;12.83;85.18
13015;BME280;6573;57.696;11.950;2023-04-05T10:25:28;102301.19;;;12.57;84.78
13015;BME280;6573;57.696;11.950;2023-04-05T10:28:03;102289.13;;;12.79;83.02
13015;BME280;6573;57.696;11.950;2023-04-05T10:30:35;102290.00;;;12.79;81.94
13015;BME280;6573;57.696;11.950;2023-04-05T10:33:17;102281.31;;;12.89;81.28
13015;BME280;6573;57.696;11.950;2023-04-05T10:35:58;102288.59;;;13.10;80.35
13015;BME280;6573;57.696;11.950;2023-04-05T10:38:29;102282.34;;;13.05;80.83
13015;BME280;6573;57.696;11.950;2023-04-05T10:41:08;102251.81;;;12.52;80.45
13015;BME280;6573;57.696;11.950;2023-04-05T10:43:38;102287.13;;;12.60;81.35
13015;BME280;6573;57.696;11.950;2023-04-05T10:46:09;102249.13;;;12.47;81.24
13015;BME280;6573;57.696;11.950;2023-04-05T10:48:45;102282.34;;;12.33;81.42
13015;BME280;6573;57.696;11.950;2023-04-05T10:51:16;102284.16;;;12.35;82.17
13015;BME280;6573;57.696;11.950;2023-04-05T10:53:45;102270.25;;;12.47;82.12
13015;BME280;6573;57.696;11.950;2023-04-05T10:56:17;102268.75;;;12.69;82.62
13015;BME280;6573;57.696;11.950;2023-04-05T10:58:46;102259.31;;;12.90;82.17
13015;BME280;6573;57.696;11.950;2023-04-05T11:01:17;102262.06;;;12.99;82.03
13015;BME280;6573;57.696;11.950;2023-04-05T11:03:49;102256.41;;;12.66;82.56
13015;BME280;6573;57.696;11.950;2023-04-05T11:06:19;102246.94;;;12.85;82.85
13015;BME280;6573;57.696;11.950;2023-04-05T11:08:49;102258.44;;;12.91;82.22
13015;BME280;6573;57.696;11.950;2023-04-05T11:11:21;102243.44;;;12.89;82.21
13015;BME280;6573;57.696;11.950;2023-04-05T11:13:51;102247.88;;;12.91;82.73
13015;BME280;6573;57.696;11.950;2023-04-05T11:16:22;102235.53;;;12.87;81.85
13015;BME280;6573;57.696;11.950;2023-04-05T11:18:52;102244.31;;;12.86;81.14
13015;BME280;6573;57.696;11.950;2023-04-05T11:21:22;102242.38;;;12.73;80.71
13015;BME280;6573;57.696;11.950;2023-04-05T11:24:05;102245.03;;;12.73;80.33
13015;BME280;6573;57.696;11.950;2023-04-05T11:26:52;102238.75;;;12.62;80.72
13015;BME280;6573;57.696;11.950;2023-04-05T11:29:46;102242.22;;;12.58;81.51
13015;BME280;6573;57.696;11.950;2023-04-05T11:32:39;102245.69;;;12.54;81.87
13015;BME280;6573;57.696;11.950;2023-04-05T11:35:13;102234.91;;;12.36;81.96
13015;BME280;6573;57.696;11.950;2023-04-05T11:40:37;102233.00;;;12.26;83.32
13015;BME280;6573;57.696;11.950;2023-04-05T11:43:10;102239.44;;;12.46;85.23
13015;BME280;6573;57.696;11.950;2023-04-05T11:45:40;102229.84;;;12.54;85.68
13015;BME280;6573;57.696;11.950;2023-04-05T11:48:11;102226.41;;;12.61;85.63
13015;BME280;6573;57.696;11.950;2023-04-05T11:50:41;102193.22;;;12.84;85.23
13015;BME280;6573;57.696;11.950;2023-04-05T11:53:12;102224.06;;;12.88;85.05
13015;BME280;6573;57.696;11.950;2023-04-05T11:55:42;102224.88;;;12.81;85.27
13015;BME280;6573;57.696;11.950;2023-04-05T11:58:12;102220.28;;;12.65;84.89
13015;BME280;6573;57.696;11.950;2023-04-05T12:00:41;102222.88;;;12.59;85.33
13015;BME280;6573;57.696;11.950;2023-04-05T12:03:14;102217.63;;;12.62;85.03
13015;BME280;6573;57.696;11.950;2023-04-05T12:05:54;102214.16;;;12.66;85.23
13015;BME280;6573;57.696;11.950;2023-04-05T12:08:23;102190.56;;;12.83;85.05
13015;BME280;6573;57.696;11.950;2023-04-05T12:11:07;102186.22;;;12.92;84.85
13015;BME280;6573;57.696;11.950;2023-04-05T12:13:37;102184.69;;;13.10;84.19
13015;BME280;6573;57.696;11.950;2023-04-05T12:16:07;102182.84;;;13.06;83.93
13015;BME280;6573;57.696;11.950;2023-04-05T12:18:37;102190.88;;;13.13;83.24
13015;BME280;6573;57.696;11.950;2023-04-05T12:21:07;102187.97;;;12.87;83.43
13015;BME280;6573;57.696;11.950;2023-04-05T12:23:36;102182.75;;;12.93;83.14
13015;BME280;6573;57.696;11.950;2023-04-05T12:26:05;102168.59;;;12.88;83.18
13015;BME280;6573;57.696;11.950;2023-04-05T12:28:50;102184.44;;;12.88;83.10
13015;BME280;6573;57.696;11.950;2023-04-05T12:31:34;102172.25;;;12.99;83.27
13015;BME280;6573;57.696;11.950;2023-04-05T12:34:04;102164.19;;;12.86;83.26
13015;BME280;6573;57.696;11.950;2023-04-05T12:36:32;102182.69;;;12.90;83.30
13015;BME280;6573;57.696;11.950;2023-04-05T12:39:06;102135.94;;;12.80;82.82
13015;BME280;6573;57.696;11.950;2023-04-05T12:41:35;102165.50;;;13.32;82.88
13015;BME280;6573;57.696;11.950;2023-04-05T12:44:04;102163.78;;;13.37;81.78
13015;BME280;6573;57.696;11.950;2023-04-05T12:46:40;102158.50;;;13.37;81.19
13015;BME280;6573;57.696;11.950;2023-04-05T12:49:15;102173.63;;;13.59;81.24
13015;BME280;6573;57.696;11.950;2023-04-05T12:51:44;102151.22;;;13.09;80.72
13015;BME280;6573;57.696;11.950;2023-04-05T12:54:13;102159.75;;;12.83;81.42
13015;BME280;6573;57.696;11.950;2023-04-05T12:56:42;102158.03;;;12.88;81.22
13015;BME280;6573;57.696;11.950;2023-04-05T12:59:10;102143.09;;;12.87;81.38
13015;BME280;6573;57.696;11.950;2023-04-05T13:01:39;102149.94;;;12.69;81.24
13015;BME280;6573;57.696;11.950;2023-04-05T13:04:07;102139.41;;;12.72;81.41
13015;BME280;6573;57.696;11.950;2023-04-05T13:06:44;102154.38;;;12.74;81.17
13015;BME280;6573;57.696;11.950;2023-04-05T13:09:13;102140.16;;;12.60;81.23
13015;BME280;6573;57.696;11.950;2023-04-05T13:11:41;102131.53;;;12.75;81.33
13015;BME280;6573;57.696;11.950;2023-04-05T13:14:10;102118.50;;;12.99;81.42